Cuttyhunk, Massachusetts
Current Conditions -  °F | °C
As of 2:53 AM on Wednesday 26 Nov 2014 (Local Time) from KMVY Reporting Station
Few Clouds Few Clouds  
Wind Chill: 45°   Ceiling: Unl
Heat Index: 49°   Visibility: 10mi
Dew Point: 32°   Wind: 8mph
Humidity: 52%   Direction: 300°WNW
Pressure: 30.16"   Gusts: NA
Location:  41.42°N, 70.93°W
Report Text: KMVY 260753Z AUTO 30007KT 10SM FEW120 09/00 A3016 RMK AO2 SLP214 T00940000
Loading
Personal Weather Stations






























Interactive Weather Map New forecast layout! Learn more

10-Day Weather Forecast

Advertisements
Track Severe Weather on mobile